Crane, IN

8:28 AM EDT on November 01, 2014 (GMT -0400)
Antioch | Change Station
CLOSE
Current Station
Personal Weather Station
Location: Bloomfield, IN
Elevation: 602 ft
Nearby Weather Stations
Active Advisory: Freeze Warning Active Notice: Record Report, Public Information Statement

Elev 602 ft 38.98 °N, 86.91 °W | Updated 41 seconds ago

Partly Cloudy
Partly Cloudy
32.6 °F
Feels Like 33 °F
N
1.0
Wind Variable Wind from North
Gusts 4.0 mph

Today
High -- | Low -- °F
--% Chance of Precip.
Yesterday
High -- | Low -- °F
Precip. -- in
8:14 AM 6:46 PM
Waxing Gibbous, 66% visible
Pressure 30.32 in
Visibility 10.0 miles
Clouds Clear
Windchill 33 °F
Dew Point 26 °F
Humidity 75%
Rainfall 0.00 in
Snow Depth Not available.
UV 0 out of 12
Pollen .10 out of 12
Air Quality Not available.
Flu Activity Not available.
METAR KDCY 011215Z AUTO 35011KT 10SM CLR 00/M03 A3032 RMK AO2 T00001035

More Conditions Fewer Conditions

Pressure 30.32 in
Visibility 10.0 miles
Clouds Clear
Windchill 33 °F
Dew Point 26 °F
Humidity 75%
Rainfall 0.00 in
Snow Depth Not available.
UV 0 out of 12
Pollen .10 out of 12
Air Quality Not available.
Flu Activity Not available.
METAR KDCY 011215Z AUTO 35011KT 10SM CLR 00/M03 A3032 RMK AO2 T00001035

More Conditions Fewer Conditions

10-Day Weather Forecast

Almanac

Astronomy

Nov. 01, 2014 Rise Set
Actual Time
Civil Twilight
Nautical Twilight
Astronomical Twilight
Moon
Length of Visible Light
Length of Day
Tomorrow will be .
, % of the Moon is Illuminated

Today's Extremes

State Highs State Lows

Community

WunderPhotos

Upload Photos

1,766,912 photos uploaded!

WunderBlogs® & News

Nearby

Air Quality

  Air Quality AQ Index Pollutant
Not available.

Snow Depth

Station Depth Elevation

Earthquake Activity

City Distance Mag. Time & Date
Minimum magnitude displayed is 2.5.

Coastal Water Temperatures

Place Temperature

Nearby Weather Stations